sensor_id;sensor_type;location;lat;lon;timestamp;temperature;humidity
8008;DHT22;4049;49.468;11.200;2023-03-29T00:02:20;3.60;99.90
8008;DHT22;4049;49.468;11.200;2023-03-29T00:04:55;3.60;99.90
8008;DHT22;4049;49.468;11.200;2023-03-29T00:07:22;3.70;99.90
8008;DHT22;4049;49.468;11.200;2023-03-29T00:09:51;3.70;99.90
8008;DHT22;4049;49.468;11.200;2023-03-29T00:12:18;3.70;99.90
8008;DHT22;4049;49.468;11.200;2023-03-29T00:14:45;3.80;99.90
8008;DHT22;4049;49.468;11.200;2023-03-29T00:17:12;3.80;99.90
8008;DHT22;4049;49.468;11.200;2023-03-29T00:19:40;3.80;99.90
8008;DHT22;4049;49.468;11.200;2023-03-29T00:22:08;3.80;99.90
8008;DHT22;4049;49.468;11.200;2023-03-29T00:24:35;3.80;99.90
8008;DHT22;4049;49.468;11.200;2023-03-29T00:27:03;3.80;99.90
8008;DHT22;4049;49.468;11.200;2023-03-29T00:29:30;3.80;99.90
8008;DHT22;4049;49.468;11.200;2023-03-29T00:31:57;3.90;99.90
8008;DHT22;4049;49.468;11.200;2023-03-29T00:34:25;3.90;99.90
8008;DHT22;4049;49.468;11.200;2023-03-29T00:36:55;3.80;99.90
8008;DHT22;4049;49.468;11.200;2023-03-29T00:39:23;3.90;99.90
8008;DHT22;4049;49.468;11.200;2023-03-29T00:41:52;3.90;99.90
8008;DHT22;4049;49.468;11.200;2023-03-29T00:44:58;3.90;99.90
8008;DHT22;4049;49.468;11.200;2023-03-29T00:47:29;3.90;99.90
8008;DHT22;4049;49.468;11.200;2023-03-29T00:49:59;3.90;99.90
8008;DHT22;4049;49.468;11.200;2023-03-29T00:52:29;3.90;99.90
8008;DHT22;4049;49.468;11.200;2023-03-29T00:55:00;3.90;99.90
8008;DHT22;4049;49.468;11.200;2023-03-29T00:57:29;3.90;99.90
8008;DHT22;4049;49.468;11.200;2023-03-29T00:59:59;3.90;99.90
8008;DHT22;4049;49.468;11.200;2023-03-29T01:02:29;3.90;99.90
8008;DHT22;4049;49.468;11.200;2023-03-29T01:05:03;3.90;99.90
8008;DHT22;4049;49.468;11.200;2023-03-29T01:07:36;3.90;99.90
8008;DHT22;4049;49.468;11.200;2023-03-29T01:10:09;3.90;99.90
8008;DHT22;4049;49.468;11.200;2023-03-29T01:12:42;3.80;99.90
8008;DHT22;4049;49.468;11.200;2023-03-29T01:15:12;3.80;99.90
8008;DHT22;4049;49.468;11.200;2023-03-29T01:17:40;3.80;99.90
8008;DHT22;4049;49.468;11.200;2023-03-29T01:20:18;3.80;99.90
8008;DHT22;4049;49.468;11.200;2023-03-29T01:25:46;3.80;99.90
8008;DHT22;4049;49.468;11.200;2023-03-29T01:28:20;3.80;99.90
8008;DHT22;4049;49.468;11.200;2023-03-29T01:30:50;3.90;99.90
8008;DHT22;4049;49.468;11.200;2023-03-29T01:33:21;3.80;99.90
8008;DHT22;4049;49.468;11.200;2023-03-29T01:35:55;3.80;99.90
8008;DHT22;4049;49.468;11.200;2023-03-29T01:38:26;3.80;99.90
8008;DHT22;4049;49.468;11.200;2023-03-29T01:40:53;3.80;99.90
8008;DHT22;4049;49.468;11.200;2023-03-29T01:43:25;3.80;99.90
8008;DHT22;4049;49.468;11.200;2023-03-29T01:46:00;3.90;99.90
8008;DHT22;4049;49.468;11.200;2023-03-29T01:48:30;3.90;99.90
8008;DHT22;4049;49.468;11.200;2023-03-29T01:51:03;3.80;99.90
8008;DHT22;4049;49.468;11.200;2023-03-29T01:53:36;3.80;99.90
8008;DHT22;4049;49.468;11.200;2023-03-29T01:56:09;3.80;99.90
8008;DHT22;4049;49.468;11.200;2023-03-29T01:58:40;3.80;99.90
8008;DHT22;4049;49.468;11.200;2023-03-29T02:01:10;3.80;99.90
8008;DHT22;4049;49.468;11.200;2023-03-29T02:03:44;3.80;99.90
8008;DHT22;4049;49.468;11.200;2023-03-29T02:06:17;3.80;99.90
8008;DHT22;4049;49.468;11.200;2023-03-29T02:08:45;3.80;99.90
8008;DHT22;4049;49.468;11.200;2023-03-29T02:11:13;3.80;99.90
8008;DHT22;4049;49.468;11.200;2023-03-29T02:13:41;3.80;99.90
8008;DHT22;4049;49.468;11.200;2023-03-29T02:16:09;3.80;99.90
8008;DHT22;4049;49.468;11.200;2023-03-29T02:18:37;3.80;99.90
8008;DHT22;4049;49.468;11.200;2023-03-29T02:21:05;3.80;99.90
8008;DHT22;4049;49.468;11.200;2023-03-29T02:23:34;3.80;99.90
8008;DHT22;4049;49.468;11.200;2023-03-29T02:26:03;3.80;99.90
8008;DHT22;4049;49.468;11.200;2023-03-29T02:28:31;3.70;99.90
8008;DHT22;4049;49.468;11.200;2023-03-29T02:31:04;3.80;99.90
8008;DHT22;4049;49.468;11.200;2023-03-29T02:33:38;3.80;99.90
8008;DHT22;4049;49.468;11.200;2023-03-29T02:36:09;3.80;99.90
8008;DHT22;4049;49.468;11.200;2023-03-29T02:38:38;3.70;99.90
8008;DHT22;4049;49.468;11.200;2023-03-29T02:41:06;3.70;99.90
8008;DHT22;4049;49.468;11.200;2023-03-29T02:43:34;3.70;99.90
8008;DHT22;4049;49.468;11.200;2023-03-29T02:46:04;3.70;99.90
8008;DHT22;4049;49.468;11.200;2023-03-29T02:48:37;3.60;99.90
8008;DHT22;4049;49.468;11.200;2023-03-29T02:51:10;3.70;99.90
8008;DHT22;4049;49.468;11.200;2023-03-29T02:53:40;3.60;99.90
8008;DHT22;4049;49.468;11.200;2023-03-29T02:56:08;3.60;99.90
8008;DHT22;4049;49.468;11.200;2023-03-29T02:58:35;3.60;99.90
8008;DHT22;4049;49.468;11.200;2023-03-29T03:01:04;3.60;99.90
8008;DHT22;4049;49.468;11.200;2023-03-29T03:03:32;3.60;99.90
8008;DHT22;4049;49.468;11.200;2023-03-29T03:06:00;3.60;99.90
8008;DHT22;4049;49.468;11.200;2023-03-29T03:08:27;3.60;99.90
8008;DHT22;4049;49.468;11.200;2023-03-29T03:10:54;3.60;99.90
8008;DHT22;4049;49.468;11.200;2023-03-29T03:13:21;3.60;99.90
8008;DHT22;4049;49.468;11.200;2023-03-29T03:15:50;3.60;99.90
8008;DHT22;4049;49.468;11.200;2023-03-29T03:18:18;3.60;99.90
8008;DHT22;4049;49.468;11.200;2023-03-29T03:20:53;3.60;99.90
8008;DHT22;4049;49.468;11.200;2023-03-29T03:23:20;3.60;99.90
8008;DHT22;4049;49.468;11.200;2023-03-29T03:25:47;3.60;99.90
8008;DHT22;4049;49.468;11.200;2023-03-29T03:28:14;3.60;99.90
8008;DHT22;4049;49.468;11.200;2023-03-29T03:30:41;3.60;99.90
8008;DHT22;4049;49.468;11.200;2023-03-29T03:33:08;3.60;99.90
8008;DHT22;4049;49.468;11.200;2023-03-29T03:35:37;3.60;99.90
8008;DHT22;4049;49.468;11.200;2023-03-29T03:38:04;3.60;99.90
8008;DHT22;4049;49.468;11.200;2023-03-29T03:40:31;3.60;99.90
8008;DHT22;4049;49.468;11.200;2023-03-29T03:42:58;3.60;99.90
8008;DHT22;4049;49.468;11.200;2023-03-29T03:45:25;3.60;99.90
8008;DHT22;4049;49.468;11.200;2023-03-29T03:47:52;3.60;99.90
8008;DHT22;4049;49.468;11.200;2023-03-29T03:50:19;3.60;99.90
8008;DHT22;4049;49.468;11.200;2023-03-29T03:52:47;3.60;99.90
8008;DHT22;4049;49.468;11.200;2023-03-29T03:55:14;3.60;99.90
8008;DHT22;4049;49.468;11.200;2023-03-29T03:57:42;3.60;99.90
8008;DHT22;4049;49.468;11.200;2023-03-29T04:00:10;3.60;99.90
8008;DHT22;4049;49.468;11.200;2023-03-29T04:02:45;3.60;99.90
8008;DHT22;4049;49.468;11.200;2023-03-29T04:05:13;3.60;99.90
8008;DHT22;4049;49.468;11.200;2023-03-29T04:07:40;3.60;99.90
8008;DHT22;4049;49.468;11.200;2023-03-29T04:10:09;3.60;99.90
8008;DHT22;4049;49.468;11.200;2023-03-29T04:12:36;3.60;99.90
8008;DHT22;4049;49.468;11.200;2023-03-29T04:15:04;3.60;99.90
8008;DHT22;4049;49.468;11.200;2023-03-29T04:17:32;3.60;99.90
8008;DHT22;4049;49.468;11.200;2023-03-29T04:19:59;3.60;99.90
8008;DHT22;4049;49.468;11.200;2023-03-29T04:22:31;3.60;99.90
8008;DHT22;4049;49.468;11.200;2023-03-29T04:24:58;3.60;99.90
8008;DHT22;4049;49.468;11.200;2023-03-29T04:27:26;3.60;99.90
8008;DHT22;4049;49.468;11.200;2023-03-29T04:29:53;3.60;99.90
8008;DHT22;4049;49.468;11.200;2023-03-29T04:32:20;3.60;99.90
8008;DHT22;4049;49.468;11.200;2023-03-29T04:34:47;3.60;99.90
8008;DHT22;4049;49.468;11.200;2023-03-29T04:37:14;3.60;99.90
8008;DHT22;4049;49.468;11.200;2023-03-29T04:39:43;3.60;99.90
8008;DHT22;4049;49.468;11.200;2023-03-29T04:42:10;3.60;99.90
8008;DHT22;4049;49.468;11.200;2023-03-29T04:44:38;3.60;99.90
8008;DHT22;4049;49.468;11.200;2023-03-29T04:47:07;3.60;99.90
8008;DHT22;4049;49.468;11.200;2023-03-29T04:49:35;3.60;99.90
8008;DHT22;4049;49.468;11.200;2023-03-29T04:52:02;3.60;99.90
8008;DHT22;4049;49.468;11.200;2023-03-29T04:54:29;3.70;99.90
8008;DHT22;4049;49.468;11.200;2023-03-29T04:56:56;3.70;99.90
8008;DHT22;4049;49.468;11.200;2023-03-29T04:59:23;3.70;99.90
8008;DHT22;4049;49.468;11.200;2023-03-29T05:01:51;3.70;99.90
8008;DHT22;4049;49.468;11.200;2023-03-29T05:04:19;3.70;99.90
8008;DHT22;4049;49.468;11.200;2023-03-29T05:06:46;3.70;99.90
8008;DHT22;4049;49.468;11.200;2023-03-29T05:09:13;3.70;99.90
8008;DHT22;4049;49.468;11.200;2023-03-29T05:11:40;3.70;99.90
8008;DHT22;4049;49.468;11.200;2023-03-29T05:14:07;3.70;99.90
8008;DHT22;4049;49.468;11.200;2023-03-29T05:16:34;3.70;99.90
8008;DHT22;4049;49.468;11.200;2023-03-29T05:19:03;3.70;99.90
8008;DHT22;4049;49.468;11.200;2023-03-29T05:21:30;3.70;99.90
8008;DHT22;4049;49.468;11.200;2023-03-29T05:23:57;3.70;99.90
8008;DHT22;4049;49.468;11.200;2023-03-29T05:26:24;3.70;99.90
8008;DHT22;4049;49.468;11.200;2023-03-29T05:28:54;3.70;99.90
8008;DHT22;4049;49.468;11.200;2023-03-29T05:31:21;3.80;99.90
8008;DHT22;4049;49.468;11.200;2023-03-29T05:33:49;3.80;99.90
8008;DHT22;4049;49.468;11.200;2023-03-29T05:36:18;3.80;99.90
8008;DHT22;4049;49.468;11.200;2023-03-29T05:38:45;3.80;99.90
8008;DHT22;4049;49.468;11.200;2023-03-29T05:41:13;3.80;99.90
8008;DHT22;4049;49.468;11.200;2023-03-29T05:43:40;3.90;99.90
8008;DHT22;4049;49.468;11.200;2023-03-29T05:46:07;3.80;99.90
8008;DHT22;4049;49.468;11.200;2023-03-29T05:48:34;3.80;99.90
8008;DHT22;4049;49.468;11.200;2023-03-29T05:51:01;3.90;99.90
8008;DHT22;4049;49.468;11.200;2023-03-29T05:53:30;3.80;99.90
8008;DHT22;4049;49.468;11.200;2023-03-29T05:55:57;3.90;99.90
8008;DHT22;4049;49.468;11.200;2023-03-29T05:58:24;3.90;99.90
8008;DHT22;4049;49.468;11.200;2023-03-29T06:00:53;4.00;99.90
8008;DHT22;4049;49.468;11.200;2023-03-29T06:03:21;3.90;99.90
8008;DHT22;4049;49.468;11.200;2023-03-29T06:05:55;4.00;99.90
8008;DHT22;4049;49.468;11.200;2023-03-29T06:08:23;4.00;99.90
8008;DHT22;4049;49.468;11.200;2023-03-29T06:10:56;4.10;99.90
8008;DHT22;4049;49.468;11.200;2023-03-29T06:13:23;4.10;99.90
8008;DHT22;4049;49.468;11.200;2023-03-29T06:15:50;4.10;99.90
8008;DHT22;4049;49.468;11.200;2023-03-29T06:18:17;4.20;99.90
8008;DHT22;4049;49.468;11.200;2023-03-29T06:20:46;4.20;99.90
8008;DHT22;4049;49.468;11.200;2023-03-29T06:23:16;4.30;99.90
8008;DHT22;4049;49.468;11.200;2023-03-29T06:25:44;4.30;99.90
8008;DHT22;4049;49.468;11.200;2023-03-29T06:28:13;4.40;99.90
8008;DHT22;4049;49.468;11.200;2023-03-29T06:30:41;4.40;99.90
8008;DHT22;4049;49.468;11.200;2023-03-29T06:33:08;4.50;99.90
8008;DHT22;4049;49.468;11.200;2023-03-29T06:35:36;4.50;99.90
8008;DHT22;4049;49.468;11.200;2023-03-29T06:38:03;4.60;99.90
8008;DHT22;4049;49.468;11.200;2023-03-29T06:40:30;4.60;99.90
8008;DHT22;4049;49.468;11.200;2023-03-29T06:42:57;4.60;99.90
8008;DHT22;4049;49.468;11.200;2023-03-29T06:45:27;4.70;99.90
8008;DHT22;4049;49.468;11.200;2023-03-29T06:47:54;4.80;99.90
8008;DHT22;4049;49.468;11.200;2023-03-29T06:50:21;4.80;99.90
8008;DHT22;4049;49.468;11.200;2023-03-29T06:52:49;4.80;99.90
8008;DHT22;4049;49.468;11.200;2023-03-29T06:55:16;4.80;99.90
8008;DHT22;4049;49.468;11.200;2023-03-29T06:57:43;4.90;99.90
8008;DHT22;4049;49.468;11.200;2023-03-29T07:00:11;4.90;99.90
8008;DHT22;4049;49.468;11.200;2023-03-29T07:02:44;5.00;99.90
8008;DHT22;4049;49.468;11.200;2023-03-29T07:05:12;5.00;99.90
8008;DHT22;4049;49.468;11.200;2023-03-29T07:07:39;5.10;99.90
8008;DHT22;4049;49.468;11.200;2023-03-29T07:10:21;5.10;99.90
8008;DHT22;4049;49.468;11.200;2023-03-29T07:12:48;5.10;99.90
8008;DHT22;4049;49.468;11.200;2023-03-29T07:15:16;5.20;99.90
8008;DHT22;4049;49.468;11.200;2023-03-29T07:17:44;5.20;99.90
8008;DHT22;4049;49.468;11.200;2023-03-29T07:20:11;5.20;99.90
8008;DHT22;4049;49.468;11.200;2023-03-29T07:22:39;5.30;99.90
8008;DHT22;4049;49.468;11.200;2023-03-29T07:25:07;5.30;99.90
8008;DHT22;4049;49.468;11.200;2023-03-29T07:27:35;5.40;99.90
8008;DHT22;4049;49.468;11.200;2023-03-29T07:30:03;5.40;99.90
8008;DHT22;4049;49.468;11.200;2023-03-29T07:32:34;5.50;99.90
8008;DHT22;4049;49.468;11.200;2023-03-29T07:35:03;5.60;99.90
8008;DHT22;4049;49.468;11.200;2023-03-29T07:37:31;5.60;99.90
8008;DHT22;4049;49.468;11.200;2023-03-29T07:39:58;5.70;99.90
8008;DHT22;4049;49.468;11.200;2023-03-29T07:42:26;5.70;99.90
8008;DHT22;4049;49.468;11.200;2023-03-29T07:44:53;5.80;99.90
8008;DHT22;4049;49.468;11.200;2023-03-29T07:47:20;5.90;99.90
8008;DHT22;4049;49.468;11.200;2023-03-29T07:49:47;6.00;99.90
8008;DHT22;4049;49.468;11.200;2023-03-29T07:52:15;6.10;99.90
8008;DHT22;4049;49.468;11.200;2023-03-29T07:54:42;6.20;99.90
8008;DHT22;4049;49.468;11.200;2023-03-29T07:57:09;6.30;99.90
8008;DHT22;4049;49.468;11.200;2023-03-29T07:59:36;6.40;99.90
8008;DHT22;4049;49.468;11.200;2023-03-29T08:02:03;6.50;99.90
8008;DHT22;4049;49.468;11.200;2023-03-29T08:04:31;6.50;99.90
8008;DHT22;4049;49.468;11.200;2023-03-29T08:07:00;6.60;99.90
8008;DHT22;4049;49.468;11.200;2023-03-29T08:09:28;6.70;99.90
8008;DHT22;4049;49.468;11.200;2023-03-29T08:11:55;6.80;99.90
8008;DHT22;4049;49.468;11.200;2023-03-29T08:14:22;6.90;99.90
8008;DHT22;4049;49.468;11.200;2023-03-29T08:16:49;7.00;99.90
8008;DHT22;4049;49.468;11.200;2023-03-29T08:19:17;7.10;99.90
8008;DHT22;4049;49.468;11.200;2023-03-29T08:21:44;7.10;99.90
8008;DHT22;4049;49.468;11.200;2023-03-29T08:24:11;7.20;99.90
8008;DHT22;4049;49.468;11.200;2023-03-29T08:26:40;7.20;99.90
8008;DHT22;4049;49.468;11.200;2023-03-29T08:29:06;7.20;99.90
8008;DHT22;4049;49.468;11.200;2023-03-29T08:31:34;7.30;99.90
8008;DHT22;4049;49.468;11.200;2023-03-29T08:34:01;7.30;99.90
8008;DHT22;4049;49.468;11.200;2023-03-29T08:36:28;7.40;99.90
8008;DHT22;4049;49.468;11.200;2023-03-29T08:38:54;7.50;99.90
8008;DHT22;4049;49.468;11.200;2023-03-29T08:41:39;7.50;99.90
8008;DHT22;4049;49.468;11.200;2023-03-29T08:44:21;7.60;99.90
8008;DHT22;4049;49.468;11.200;2023-03-29T08:46:57;7.70;99.90
8008;DHT22;4049;49.468;11.200;2023-03-29T08:49:28;7.90;99.90
8008;DHT22;4049;49.468;11.200;2023-03-29T08:51:58;8.00;99.90
8008;DHT22;4049;49.468;11.200;2023-03-29T08:54:28;8.10;99.90
8008;DHT22;4049;49.468;11.200;2023-03-29T08:57:03;8.30;99.90
8008;DHT22;4049;49.468;11.200;2023-03-29T08:59:33;8.40;99.90
8008;DHT22;4049;49.468;11.200;2023-03-29T09:02:02;8.50;99.90
8008;DHT22;4049;49.468;11.200;2023-03-29T09:04:32;8.60;99.90
8008;DHT22;4049;49.468;11.200;2023-03-29T09:07:01;8.80;99.90
8008;DHT22;4049;49.468;11.200;2023-03-29T09:09:31;8.90;99.90
8008;DHT22;4049;49.468;11.200;2023-03-29T09:12:09;9.00;99.90
8008;DHT22;4049;49.468;11.200;2023-03-29T09:14:55;9.10;99.90
8008;DHT22;4049;49.468;11.200;2023-03-29T09:17:32;9.30;99.90
8008;DHT22;4049;49.468;11.200;2023-03-29T09:20:09;9.40;99.90
8008;DHT22;4049;49.468;11.200;2023-03-29T09:22:43;9.40;99.90
8008;DHT22;4049;49.468;11.200;2023-03-29T09:25:18;9.50;99.90
8008;DHT22;4049;49.468;11.200;2023-03-29T09:27:52;9.60;99.90
8008;DHT22;4049;49.468;11.200;2023-03-29T09:30:26;9.70;99.90
8008;DHT22;4049;49.468;11.200;2023-03-29T09:32:57;9.70;99.90
8008;DHT22;4049;49.468;11.200;2023-03-29T09:35:29;9.70;99.90
8008;DHT22;4049;49.468;11.200;2023-03-29T09:37:57;9.90;99.90
8008;DHT22;4049;49.468;11.200;2023-03-29T09:40:28;10.00;99.90
8008;DHT22;4049;49.468;11.200;2023-03-29T09:42:58;10.10;99.90
8008;DHT22;4049;49.468;11.200;2023-03-29T09:45:30;10.20;99.90
8008;DHT22;4049;49.468;11.200;2023-03-29T09:48:02;10.40;99.90
8008;DHT22;4049;49.468;11.200;2023-03-29T09:50:33;10.60;99.90
8008;DHT22;4049;49.468;11.200;2023-03-29T09:53:02;10.70;99.90
8008;DHT22;4049;49.468;11.200;2023-03-29T09:55:31;10.90;99.90
8008;DHT22;4049;49.468;11.200;2023-03-29T09:58:00;11.00;99.90
8008;DHT22;4049;49.468;11.200;2023-03-29T10:00:29;11.20;99.90
8008;DHT22;4049;49.468;11.200;2023-03-29T10:02:57;11.30;99.90
8008;DHT22;4049;49.468;11.200;2023-03-29T10:05:25;11.40;99.90
8008;DHT22;4049;49.468;11.200;2023-03-29T10:07:57;11.40;99.90
8008;DHT22;4049;49.468;11.200;2023-03-29T10:10:28;11.40;99.90
8008;DHT22;4049;49.468;11.200;2023-03-29T10:12:58;11.50;99.90
8008;DHT22;4049;49.468;11.200;2023-03-29T10:15:27;11.50;99.90
8008;DHT22;4049;49.468;11.200;2023-03-29T10:17:58;11.40;99.90
8008;DHT22;4049;49.468;11.200;2023-03-29T10:20:25;11.50;99.90
8008;DHT22;4049;49.468;11.200;2023-03-29T10:22:55;11.50;99.90
8008;DHT22;4049;49.468;11.200;2023-03-29T10:25:26;11.50;99.90
8008;DHT22;4049;49.468;11.200;2023-03-29T10:27:57;11.60;99.90
8008;DHT22;4049;49.468;11.200;2023-03-29T10:30:29;11.60;99.90
8008;DHT22;4049;49.468;11.200;2023-03-29T10:33:01;11.70;99.90
8008;DHT22;4049;49.468;11.200;2023-03-29T10:35:31;11.70;99.90
8008;DHT22;4049;49.468;11.200;2023-03-29T10:37:59;11.70;99.90
8008;DHT22;4049;49.468;11.200;2023-03-29T10:40:30;11.80;99.90
8008;DHT22;4049;49.468;11.200;2023-03-29T10:43:00;11.80;99.90
8008;DHT22;4049;49.468;11.200;2023-03-29T10:45:29;11.80;99.90
8008;DHT22;4049;49.468;11.200;2023-03-29T10:47:56;11.80;99.90
8008;DHT22;4049;49.468;11.200;2023-03-29T10:50:31;11.80;99.90
8008;DHT22;4049;49.468;11.200;2023-03-29T10:52:59;11.80;99.90
8008;DHT22;4049;49.468;11.200;2023-03-29T10:55:31;11.90;99.90
8008;DHT22;4049;49.468;11.200;2023-03-29T10:58:05;11.90;99.90
8008;DHT22;4049;49.468;11.200;2023-03-29T11:00:39;11.90;99.90
8008;DHT22;4049;49.468;11.200;2023-03-29T11:03:37;11.90;99.90
8008;DHT22;4049;49.468;11.200;2023-03-29T11:06:14;12.00;99.90
8008;DHT22;4049;49.468;11.200;2023-03-29T11:08:57;12.00;99.90
8008;DHT22;4049;49.468;11.200;2023-03-29T11:11:39;12.00;99.90
8008;DHT22;4049;49.468;11.200;2023-03-29T11:14:16;12.00;99.90
8008;DHT22;4049;49.468;11.200;2023-03-29T11:16:55;12.00;99.90
8008;DHT22;4049;49.468;11.200;2023-03-29T11:19:55;12.00;99.90
8008;DHT22;4049;49.468;11.200;2023-03-29T11:22:33;12.00;99.90
8008;DHT22;4049;49.468;11.200;2023-03-29T11:25:19;12.10;99.90
8008;DHT22;4049;49.468;11.200;2023-03-29T11:27:53;12.20;99.90
8008;DHT22;4049;49.468;11.200;2023-03-29T11:30:28;12.30;99.90
8008;DHT22;4049;49.468;11.200;2023-03-29T11:33:06;12.40;99.90
8008;DHT22;4049;49.468;11.200;2023-03-29T11:35:42;12.50;99.90
8008;DHT22;4049;49.468;11.200;2023-03-29T11:38:19;12.60;99.90
8008;DHT22;4049;49.468;11.200;2023-03-29T11:40:58;12.70;99.90
8008;DHT22;4049;49.468;11.200;2023-03-29T11:43:30;12.80;99.90
8008;DHT22;4049;49.468;11.200;2023-03-29T11:46:02;12.90;99.90
8008;DHT22;4049;49.468;11.200;2023-03-29T11:48:36;12.90;99.90
8008;DHT22;4049;49.468;11.200;2023-03-29T11:51:08;13.00;99.90
8008;DHT22;4049;49.468;11.200;2023-03-29T11:53:45;13.00;99.90
8008;DHT22;4049;49.468;11.200;2023-03-29T11:56:18;13.10;99.90
8008;DHT22;4049;49.468;11.200;2023-03-29T11:58:51;13.30;99.90
8008;DHT22;4049;49.468;11.200;2023-03-29T12:01:27;13.30;99.90
8008;DHT22;4049;49.468;11.200;2023-03-29T12:03:55;13.30;99.90
8008;DHT22;4049;49.468;11.200;2023-03-29T12:06:28;13.30;99.00
8008;DHT22;4049;49.468;11.200;2023-03-29T12:09:02;13.20;99.10
8008;DHT22;4049;49.468;11.200;2023-03-29T12:11:36;13.30;99.90
8008;DHT22;4049;49.468;11.200;2023-03-29T12:14:09;13.50;99.90
8008;DHT22;4049;49.468;11.200;2023-03-29T12:16:40;13.60;99.90
8008;DHT22;4049;49.468;11.200;2023-03-29T12:19:16;13.70;99.90
8008;DHT22;4049;49.468;11.200;2023-03-29T12:21:44;13.80;99.90
8008;DHT22;4049;49.468;11.200;2023-03-29T12:24:14;13.90;99.90
8008;DHT22;4049;49.468;11.200;2023-03-29T12:26:59;14.10;99.90
8008;DHT22;4049;49.468;11.200;2023-03-29T12:29:42;14.20;99.50
8008;DHT22;4049;49.468;11.200;2023-03-29T12:32:26;14.30;99.40
8008;DHT22;4049;49.468;11.200;2023-03-29T12:35:07;14.30;97.70
8008;DHT22;4049;49.468;11.200;2023-03-29T12:37:43;14.40;98.20
8008;DHT22;4049;49.468;11.200;2023-03-29T12:40:14;14.40;97.90
8008;DHT22;4049;49.468;11.200;2023-03-29T12:42:46;14.50;98.00
8008;DHT22;4049;49.468;11.200;2023-03-29T12:45:18;14.50;95.60
8008;DHT22;4049;49.468;11.200;2023-03-29T12:47:47;14.50;95.50
8008;DHT22;4049;49.468;11.200;2023-03-29T12:50:22;14.50;95.70
8008;DHT22;4049;49.468;11.200;2023-03-29T12:52:50;14.40;95.90
8008;DHT22;4049;49.468;11.200;2023-03-29T12:55:28;14.40;96.30
8008;DHT22;4049;49.468;11.200;2023-03-29T12:58:00;14.50;97.90
8008;DHT22;4049;49.468;11.200;2023-03-29T13:00:32;14.50;97.00
8008;DHT22;4049;49.468;11.200;2023-03-29T13:03:00;14.60;97.20
8008;DHT22;4049;49.468;11.200;2023-03-29T13:05:30;14.60;96.80
8008;DHT22;4049;49.468;11.200;2023-03-29T13:07:58;14.60;97.60
8008;DHT22;4049;49.468;11.200;2023-03-29T13:10:34;14.50;97.50
8008;DHT22;4049;49.468;11.200;2023-03-29T13:13:13;14.40;97.90
8008;DHT22;4049;49.468;11.200;2023-03-29T13:15:42;14.40;98.40
8008;DHT22;4049;49.468;11.200;2023-03-29T13:18:21;14.50;99.80
8008;DHT22;4049;49.468;11.200;2023-03-29T13:20:59;14.50;99.20
8008;DHT22;4049;49.468;11.200;2023-03-29T13:23:38;14.50;99.30
8008;DHT22;4049;49.468;11.200;2023-03-29T13:26:19;14.50;99.90
8008;DHT22;4049;49.468;11.200;2023-03-29T13:29:07;14.50;99.90
8008;DHT22;4049;49.468;11.200;2023-03-29T13:31:40;14.50;99.90
8008;DHT22;4049;49.468;11.200;2023-03-29T13:34:15;14.50;99.90
8008;DHT22;4049;49.468;11.200;2023-03-29T13:36:55;14.40;99.90
8008;DHT22;4049;49.468;11.200;2023-03-29T13:39:27;14.40;99.90
8008;DHT22;4049;49.468;11.200;2023-03-29T13:42:16;14.50;99.90
8008;DHT22;4049;49.468;11.200;2023-03-29T13:44:44;14.50;99.90
8008;DHT22;4049;49.468;11.200;2023-03-29T13:47:27;14.60;99.90
8008;DHT22;4049;49.468;11.200;2023-03-29T13:50:05;14.70;99.90
8008;DHT22;4049;49.468;11.200;2023-03-29T13:52:40;14.70;99.90
8008;DHT22;4049;49.468;11.200;2023-03-29T13:55:14;14.60;99.90
8008;DHT22;4049;49.468;11.200;2023-03-29T13:57:51;14.50;99.90
8008;DHT22;4049;49.468;11.200;2023-03-29T14:00:21;14.40;99.90
8008;DHT22;4049;49.468;11.200;2023-03-29T14:02:50;14.30;99.90
8008;DHT22;4049;49.468;11.200;2023-03-29T14:05:23;14.20;99.90
8008;DHT22;4049;49.468;11.200;2023-03-29T14:07:53;14.10;99.90
8008;DHT22;4049;49.468;11.200;2023-03-29T14:10:25;14.10;99.90
8008;DHT22;4049;49.468;11.200;2023-03-29T14:12:54;14.10;99.90
8008;DHT22;4049;49.468;11.200;2023-03-29T14:15:24;14.20;99.90
8008;DHT22;4049;49.468;11.200;2023-03-29T14:17:55;14.30;99.90
8008;DHT22;4049;49.468;11.200;2023-03-29T14:20:22;14.20;99.90
8008;DHT22;4049;49.468;11.200;2023-03-29T14:22:50;14.20;99.90
8008;DHT22;4049;49.468;11.200;2023-03-29T14:25:19;14.20;99.90
8008;DHT22;4049;49.468;11.200;2023-03-29T14:27:47;14.30;99.90
8008;DHT22;4049;49.468;11.200;2023-03-29T14:30:25;14.30;99.90
8008;DHT22;4049;49.468;11.200;2023-03-29T14:32:53;14.20;99.90
8008;DHT22;4049;49.468;11.200;2023-03-29T14:35:27;14.20;99.90
8008;DHT22;4049;49.468;11.200;2023-03-29T14:37:55;14.10;99.90
8008;DHT22;4049;49.468;11.200;2023-03-29T14:40:22;14.10;99.90
8008;DHT22;4049;49.468;11.200;2023-03-29T14:42:49;14.20;99.90
8008;DHT22;4049;49.468;11.200;2023-03-29T14:45:19;14.20;99.90
8008;DHT22;4049;49.468;11.200;2023-03-29T14:47:50;14.20;99.90
8008;DHT22;4049;49.468;11.200;2023-03-29T14:50:21;14.30;99.90
8008;DHT22;4049;49.468;11.200;2023-03-29T14:52:50;14.30;99.90
8008;DHT22;4049;49.468;11.200;2023-03-29T14:55:17;14.30;99.90
8008;DHT22;4049;49.468;11.200;2023-03-29T14:57:49;14.40;99.90
8008;DHT22;4049;49.468;11.200;2023-03-29T15:00:21;14.40;99.90
8008;DHT22;4049;49.468;11.200;2023-03-29T15:02:56;14.40;99.90
8008;DHT22;4049;49.468;11.200;2023-03-29T15:05:27;14.40;99.90
8008;DHT22;4049;49.468;11.200;2023-03-29T15:07:56;14.30;99.90
8008;DHT22;4049;49.468;11.200;2023-03-29T15:10:23;14.30;99.90
8008;DHT22;4049;49.468;11.200;2023-03-29T15:12:50;14.30;99.90
8008;DHT22;4049;49.468;11.200;2023-03-29T15:15:17;14.30;99.90
8008;DHT22;4049;49.468;11.200;2023-03-29T15:17:45;14.20;99.90
8008;DHT22;4049;49.468;11.200;2023-03-29T15:20:17;14.20;99.90
8008;DHT22;4049;49.468;11.200;2023-03-29T15:22:55;14.10;99.90
8008;DHT22;4049;49.468;11.200;2023-03-29T15:25:25;14.10;99.90
8008;DHT22;4049;49.468;11.200;2023-03-29T15:27:54;14.00;99.90
8008;DHT22;4049;49.468;11.200;2023-03-29T15:30:32;14.00;99.90
8008;DHT22;4049;49.468;11.200;2023-03-29T15:33:18;13.90;99.90
8008;DHT22;4049;49.468;11.200;2023-03-29T15:35:50;13.90;99.90
8008;DHT22;4049;49.468;11.200;2023-03-29T15:38:18;13.80;99.90
8008;DHT22;4049;49.468;11.200;2023-03-29T15:40:46;13.80;99.90
8008;DHT22;4049;49.468;11.200;2023-03-29T15:43:13;13.80;99.90
8008;DHT22;4049;49.468;11.200;2023-03-29T15:45:40;13.70;99.90
8008;DHT22;4049;49.468;11.200;2023-03-29T15:48:14;13.70;99.90
8008;DHT22;4049;49.468;11.200;2023-03-29T15:50:42;13.70;99.90
8008;DHT22;4049;49.468;11.200;2023-03-29T15:53:10;13.70;99.90
8008;DHT22;4049;49.468;11.200;2023-03-29T15:55:39;13.70;99.90
8008;DHT22;4049;49.468;11.200;2023-03-29T15:58:10;13.70;99.90
8008;DHT22;4049;49.468;11.200;2023-03-29T16:00:39;13.70;99.90
8008;DHT22;4049;49.468;11.200;2023-03-29T16:03:11;13.70;99.90
8008;DHT22;4049;49.468;11.200;2023-03-29T16:05:39;13.80;99.90
8008;DHT22;4049;49.468;11.200;2023-03-29T16:08:10;13.80;99.90
8008;DHT22;4049;49.468;11.200;2023-03-29T16:10:38;13.80;99.90
8008;DHT22;4049;49.468;11.200;2023-03-29T16:13:05;13.80;99.90
8008;DHT22;4049;49.468;11.200;2023-03-29T16:15:32;13.80;99.90
8008;DHT22;4049;49.468;11.200;2023-03-29T16:18:00;13.80;99.90
8008;DHT22;4049;49.468;11.200;2023-03-29T16:20:27;13.80;99.90